createdAt,value
2023-01-13T00:01:31.677Z,15.20
2023-01-13T00:04:00.374Z,13.43
2023-01-13T00:06:30.129Z,18.52
2023-01-13T00:08:58.989Z,18.95
2023-01-13T00:11:27.891Z,15.43
2023-01-13T00:13:56.405Z,16.70
2023-01-13T00:16:24.825Z,14.10
2023-01-13T00:18:53.166Z,17.20
2023-01-13T00:21:23.204Z,15.55
2023-01-13T00:23:57.075Z,14.02
2023-01-13T00:26:27.647Z,17.05
2023-01-13T00:28:59.042Z,14.40
2023-01-13T00:31:28.704Z,17.02
2023-01-13T00:33:58.542Z,16.55
2023-01-13T00:36:27.336Z,19.20
2023-01-13T00:38:57.189Z,20.65
2023-01-13T00:41:27.586Z,16.10
2023-01-13T00:43:55.134Z,19.30
2023-01-13T00:46:24.101Z,13.43
2023-01-13T00:48:52.992Z,21.17
2023-01-13T00:51:22.814Z,15.88
2023-01-13T00:53:53.146Z,15.40
2023-01-13T00:56:39.836Z,15.20
2023-01-13T00:59:09.199Z,14.18
2023-01-13T01:01:37.711Z,18.23
2023-01-13T01:04:06.464Z,16.48
2023-01-13T01:06:34.918Z,18.63
2023-01-13T01:09:03.469Z,16.45
2023-01-13T01:11:34.346Z,16.58
2023-01-13T01:14:04.612Z,20.25
2023-01-13T01:16:34.591Z,13.77
2023-01-13T01:19:03.999Z,16.73
2023-01-13T01:21:33.132Z,18.05
2023-01-13T01:24:03.459Z,24.05
2023-01-13T01:26:34.064Z,17.63
2023-01-13T01:29:04.414Z,22.80
2023-01-13T01:31:34.665Z,18.25
2023-01-13T01:34:03.493Z,20.45
2023-01-13T01:36:32.101Z,15.70
2023-01-13T01:39:01.168Z,18.85
2023-01-13T01:41:32.704Z,18.35
2023-01-13T01:44:07.282Z,17.40
2023-01-13T01:46:38.009Z,19.58
2023-01-13T01:49:19.657Z,20.08
2023-01-13T01:51:54.389Z,16.65
2023-01-13T01:54:29.781Z,18.30
2023-01-13T01:56:58.247Z,20.27
2023-01-13T01:59:34.470Z,18.08
2023-01-13T02:02:03.107Z,12.27
2023-01-13T02:04:35.442Z,14.75
2023-01-13T02:07:04.919Z,17.60
2023-01-13T02:09:34.216Z,16.45
2023-01-13T02:12:19.698Z,16.38
2023-01-13T02:14:49.425Z,18.00
2023-01-13T02:17:32.422Z,16.40
2023-01-13T02:20:36.531Z,14.77
2023-01-13T02:24:01.438Z,14.50
2023-01-13T02:27:02.345Z,15.02
2023-01-13T02:30:15.328Z,15.13
2023-01-13T02:32:52.284Z,18.33
2023-01-13T02:35:26.977Z,18.77
2023-01-13T02:37:57.822Z,19.60
2023-01-13T02:40:30.409Z,16.17
2023-01-13T02:43:23.480Z,12.55
2023-01-13T02:46:00.192Z,12.65
2023-01-13T02:48:31.345Z,16.83
2023-01-13T02:51:05.792Z,15.07
2023-01-13T02:53:40.028Z,15.00
2023-01-13T02:56:11.245Z,15.25
2023-01-13T02:58:42.161Z,15.90
2023-01-13T03:01:12.202Z,16.25
2023-01-13T03:03:40.714Z,18.45
2023-01-13T03:06:26.571Z,18.67
2023-01-13T03:09:01.542Z,15.57
2023-01-13T03:11:35.829Z,14.50
2023-01-13T03:14:13.878Z,14.30
2023-01-13T03:16:56.362Z,18.67
2023-01-13T03:19:37.327Z,13.52
2023-01-13T03:22:17.189Z,15.82
2023-01-13T03:24:50.808Z,13.18
2023-01-13T03:27:26.819Z,14.75
2023-01-13T03:30:00.319Z,13.45
2023-01-13T03:32:33.623Z,13.40
2023-01-13T03:35:09.696Z,10.95
2023-01-13T03:37:42.659Z,10.85
2023-01-13T03:40:15.263Z,12.90
2023-01-13T03:43:07.308Z,13.43
2023-01-13T03:45:36.436Z,16.55
2023-01-13T03:48:10.119Z,12.77
2023-01-13T03:50:42.912Z,12.07
2023-01-13T03:53:13.176Z,11.02
2023-01-13T03:55:45.480Z,11.55
2023-01-13T03:58:16.907Z,17.25
2023-01-13T04:00:51.391Z,14.82
2023-01-13T04:03:27.098Z,16.40
2023-01-13T04:06:01.588Z,10.40
2023-01-13T04:08:30.466Z,16.40
2023-01-13T04:11:04.954Z,13.10
2023-01-13T04:13:38.020Z,13.32
2023-01-13T04:16:08.469Z,12.80
2023-01-13T04:18:40.565Z,12.90
2023-01-13T04:21:10.767Z,14.05
2023-01-13T04:23:39.183Z,15.18
2023-01-13T04:26:07.559Z,11.82
2023-01-13T04:28:36.027Z,11.30
2023-01-13T04:31:04.367Z,12.85
2023-01-13T04:33:32.652Z,13.23
2023-01-13T04:36:02.649Z,12.27
2023-01-13T04:38:31.028Z,12.05
2023-01-13T04:40:59.374Z,12.48
2023-01-13T04:43:27.949Z,14.88
2023-01-13T04:45:56.439Z,14.57
2023-01-13T04:48:27.235Z,15.90
2023-01-13T04:50:55.682Z,17.75
2023-01-13T04:53:25.496Z,16.38
2023-01-13T04:55:54.066Z,14.15
2023-01-13T04:58:22.762Z,15.02
2023-01-13T05:00:51.939Z,13.40
2023-01-13T05:03:20.387Z,13.02
2023-01-13T05:05:52.841Z,15.88
2023-01-13T05:08:21.432Z,14.45
2023-01-13T05:10:51.237Z,14.20
2023-01-13T05:13:36.853Z,15.95
2023-01-13T05:16:19.374Z,14.07
2023-01-13T05:18:47.701Z,14.45
2023-01-13T05:21:29.832Z,12.95
2023-01-13T05:24:15.288Z,13.40
2023-01-13T05:26:44.999Z,12.65
2023-01-13T05:29:13.553Z,14.98
2023-01-13T05:31:41.875Z,13.63
2023-01-13T05:34:10.217Z,13.43
2023-01-13T05:36:38.579Z,16.30
2023-01-13T05:39:06.871Z,11.45
2023-01-13T05:41:52.941Z,13.82
2023-01-13T05:44:22.789Z,14.43
2023-01-13T05:46:51.474Z,15.80
2023-01-13T05:49:19.915Z,16.52
2023-01-13T05:51:48.212Z,16.15
2023-01-13T05:54:16.656Z,20.58
2023-01-13T05:56:44.982Z,16.48
2023-01-13T05:59:13.446Z,15.60
2023-01-13T06:01:43.051Z,17.35
2023-01-13T06:04:11.345Z,14.73
2023-01-13T06:06:39.829Z,14.23
2023-01-13T06:09:08.146Z,14.90
2023-01-13T06:11:36.358Z,15.18
2023-01-13T06:14:05.003Z,17.83
2023-01-13T06:16:33.310Z,14.23
2023-01-13T06:19:03.041Z,14.43
2023-01-13T06:21:33.105Z,17.52
2023-01-13T06:24:01.601Z,12.93
2023-01-13T06:26:32.288Z,13.65
2023-01-13T06:29:00.639Z,12.68
2023-01-13T06:31:29.639Z,16.25
2023-01-13T06:34:15.790Z,15.98
2023-01-13T06:36:48.380Z,16.30
2023-01-13T06:39:19.358Z,15.85
2023-01-13T06:42:09.250Z,17.58
2023-01-13T06:44:37.573Z,22.55
2023-01-13T06:47:06.071Z,21.20
2023-01-13T06:49:35.874Z,17.80
2023-01-13T06:52:04.331Z,17.92
2023-01-13T06:54:34.638Z,17.83
2023-01-13T06:57:03.381Z,20.30
2023-01-13T06:59:35.335Z,17.45
2023-01-13T07:02:04.033Z,16.25
2023-01-13T07:04:32.540Z,13.75
2023-01-13T07:07:04.157Z,15.50
2023-01-13T07:09:32.435Z,16.40
2023-01-13T07:12:00.846Z,14.85
2023-01-13T07:14:46.491Z,21.65
2023-01-13T07:17:14.914Z,15.63
2023-01-13T07:19:43.203Z,17.02
2023-01-13T07:22:21.659Z,15.45
2023-01-13T07:24:50.582Z,15.75
2023-01-13T07:27:19.051Z,19.00
2023-01-13T07:29:47.651Z,20.38
2023-01-13T07:32:16.433Z,19.08
2023-01-13T07:34:44.811Z,19.38
2023-01-13T07:37:15.729Z,18.13
2023-01-13T07:39:45.275Z,21.42
2023-01-13T07:42:30.882Z,19.40
2023-01-13T07:44:59.334Z,18.52
2023-01-13T07:47:27.699Z,15.63
2023-01-13T07:49:56.128Z,16.92
2023-01-13T07:52:25.925Z,21.67
2023-01-13T07:54:54.253Z,19.50
2023-01-13T07:57:22.550Z,17.38
2023-01-13T07:59:50.876Z,22.40
2023-01-13T08:02:19.327Z,18.13
2023-01-13T08:04:47.752Z,22.95
2023-01-13T08:07:15.991Z,20.02
2023-01-13T08:09:45.737Z,18.35
2023-01-13T08:12:31.537Z,18.95
2023-01-13T08:14:59.770Z,20.60
2023-01-13T08:17:28.151Z,15.45
2023-01-13T08:19:56.360Z,24.23
2023-01-13T08:22:24.606Z,18.75
2023-01-13T08:24:54.401Z,16.52
2023-01-13T08:27:22.876Z,18.55
2023-01-13T08:29:51.354Z,19.48
2023-01-13T08:32:19.804Z,15.98
2023-01-13T08:34:48.181Z,21.55
2023-01-13T08:37:16.479Z,15.38
2023-01-13T08:39:44.914Z,16.20
2023-01-13T08:42:14.619Z,17.90
2023-01-13T08:44:43.060Z,18.02
2023-01-13T08:47:11.409Z,20.88
2023-01-13T08:49:40.023Z,18.75
2023-01-13T08:52:08.546Z,18.00
2023-01-13T08:54:38.486Z,16.70
2023-01-13T08:57:06.979Z,18.23
2023-01-13T08:59:36.778Z,18.70
2023-01-13T09:02:13.372Z,15.45
2023-01-13T09:04:42.044Z,18.88
2023-01-13T09:07:10.441Z,17.08
2023-01-13T09:09:40.377Z,15.95
2023-01-13T09:12:34.591Z,12.88
2023-01-13T09:15:06.315Z,13.63
2023-01-13T09:17:35.104Z,17.67
2023-01-13T09:20:03.469Z,18.10
2023-01-13T09:22:32.014Z,16.50
2023-01-13T09:25:00.479Z,15.82
2023-01-13T09:27:30.516Z,16.83
2023-01-13T09:29:59.025Z,16.77
2023-01-13T09:32:34.049Z,20.80
2023-01-13T09:35:04.061Z,19.27
2023-01-13T09:37:36.696Z,15.70
2023-01-13T09:40:16.886Z,16.77
2023-01-13T09:43:05.665Z,17.52
2023-01-13T09:45:40.242Z,16.25
2023-01-13T09:48:15.735Z,14.45
2023-01-13T09:51:00.984Z,12.45
2023-01-13T09:53:33.052Z,15.40
2023-01-13T09:56:02.111Z,20.20
2023-01-13T09:58:30.754Z,16.83
2023-01-13T10:01:09.523Z,18.23
2023-01-13T10:03:39.677Z,20.25
2023-01-13T10:06:16.753Z,19.75
2023-01-13T10:08:46.728Z,15.48
2023-01-13T10:11:34.889Z,16.05
2023-01-13T10:14:04.920Z,14.95
2023-01-13T10:16:42.394Z,12.90
2023-01-13T10:19:19.936Z,17.25
2023-01-13T10:22:12.028Z,11.63
2023-01-13T10:25:06.508Z,19.70
2023-01-13T10:27:36.478Z,16.52
2023-01-13T10:30:23.920Z,14.20
2023-01-13T10:32:59.363Z,13.63
2023-01-13T10:36:04.614Z,14.18
2023-01-13T10:38:40.311Z,15.10
2023-01-13T10:41:26.642Z,17.30
2023-01-13T10:44:09.539Z,14.40
2023-01-13T10:46:55.657Z,16.80
2023-01-13T10:49:31.179Z,14.98
2023-01-13T10:52:00.197Z,15.85
2023-01-13T10:54:32.434Z,14.35
2023-01-13T10:57:16.183Z,14.77
2023-01-13T10:59:44.656Z,15.68
2023-01-13T11:02:26.192Z,14.88
2023-01-13T11:05:12.002Z,14.27
2023-01-13T11:07:42.770Z,14.43
2023-01-13T11:10:23.696Z,12.95
2023-01-13T11:12:59.853Z,20.15
2023-01-13T11:15:40.700Z,16.17
2023-01-13T11:18:18.044Z,11.75
2023-01-13T11:20:51.671Z,14.40
2023-01-13T11:23:25.458Z,13.10
2023-01-13T11:26:03.047Z,13.68
2023-01-13T11:28:47.395Z,12.43
2023-01-13T11:31:26.991Z,12.95
2023-01-13T11:34:05.692Z,15.40
2023-01-13T11:36:40.102Z,14.18
2023-01-13T11:39:19.702Z,19.08
2023-01-13T11:42:15.122Z,15.45
2023-01-13T11:44:57.011Z,18.48
2023-01-13T11:47:30.654Z,14.10
2023-01-13T11:49:59.348Z,20.95
2023-01-13T11:52:49.930Z,13.75
2023-01-13T11:55:34.794Z,13.73
2023-01-13T11:58:45.588Z,10.73
2023-01-13T12:01:32.500Z,11.05
2023-01-13T12:04:18.074Z,17.38
2023-01-13T12:06:51.647Z,11.75
2023-01-13T12:09:40.557Z,10.63
2023-01-13T12:12:22.249Z,15.57
2023-01-13T12:15:21.149Z,11.35
2023-01-13T12:18:06.482Z,12.05
2023-01-13T12:20:43.897Z,11.05
2023-01-13T12:23:25.113Z,10.43
2023-01-13T12:26:01.064Z,11.27
2023-01-13T12:28:41.165Z,10.77
2023-01-13T12:31:12.407Z,16.08
2023-01-13T12:33:55.777Z,13.55
2023-01-13T12:36:30.655Z,11.88
2023-01-13T12:39:06.731Z,13.82
2023-01-13T12:41:59.574Z,11.15
2023-01-13T12:44:30.067Z,10.75
2023-01-13T12:47:01.544Z,13.30
2023-01-13T12:49:33.886Z,8.82
2023-01-13T12:52:20.602Z,11.07
2023-01-13T12:55:08.850Z,11.73
2023-01-13T12:57:40.862Z,13.30
2023-01-13T13:00:19.018Z,9.82
2023-01-13T13:03:20.402Z,9.80
2023-01-13T13:06:07.309Z,10.75
2023-01-13T13:08:54.193Z,13.88
2023-01-13T13:11:54.008Z,12.48
2023-01-13T13:15:11.385Z,12.77
2023-01-13T13:17:44.505Z,13.73
2023-01-13T13:20:46.351Z,10.32
2023-01-13T13:24:01.374Z,17.58
2023-01-13T13:26:41.606Z,9.05
2023-01-13T13:29:36.752Z,9.98
2023-01-13T13:32:37.158Z,10.90
2023-01-13T13:35:29.770Z,10.98
2023-01-13T13:38:30.813Z,11.60
2023-01-13T13:41:18.417Z,11.68
2023-01-13T13:44:05.021Z,11.38
2023-01-13T13:46:50.764Z,11.13
2023-01-13T13:49:20.817Z,11.75
2023-01-13T13:51:57.867Z,10.85
2023-01-13T13:54:26.476Z,9.90
2023-01-13T13:56:56.520Z,10.80
2023-01-13T13:59:27.508Z,10.52
2023-01-13T14:02:03.677Z,10.57
2023-01-13T14:04:35.612Z,12.93
2023-01-13T14:07:16.295Z,10.70
2023-01-13T14:09:48.214Z,14.77
2023-01-13T14:12:24.372Z,12.45
2023-01-13T14:14:55.987Z,12.32
2023-01-13T14:17:26.478Z,11.07
2023-01-13T14:20:01.169Z,12.02
2023-01-13T14:22:29.825Z,15.05
2023-01-13T14:24:58.644Z,14.15
2023-01-13T14:27:30.295Z,12.90
2023-01-13T14:30:01.306Z,10.15
2023-01-13T14:32:34.277Z,11.45
2023-01-13T14:35:02.775Z,13.75
2023-01-13T14:37:38.459Z,14.43
2023-01-13T14:40:46.572Z,14.95
2023-01-13T14:43:19.402Z,13.10
2023-01-13T14:45:59.593Z,14.05
2023-01-13T14:48:35.663Z,13.95
2023-01-13T14:51:06.067Z,13.90
2023-01-13T14:53:40.233Z,12.38
2023-01-13T14:56:44.376Z,12.00
2023-01-13T14:59:44.159Z,12.90
2023-01-13T15:02:43.861Z,11.55
2023-01-13T15:05:48.389Z,14.82
2023-01-13T15:08:38.272Z,12.05
2023-01-13T15:11:08.481Z,17.90
2023-01-13T15:13:45.427Z,14.00
2023-01-13T15:16:27.069Z,11.90
2023-01-13T15:18:59.094Z,12.32
2023-01-13T15:21:29.909Z,12.45
2023-01-13T15:23:58.351Z,11.25
2023-01-13T15:26:28.370Z,13.55
2023-01-13T15:28:58.851Z,12.95
2023-01-13T15:31:30.057Z,11.85
2023-01-13T15:34:00.514Z,16.17
2023-01-13T15:36:32.331Z,12.65
2023-01-13T15:39:02.024Z,14.38
2023-01-13T15:41:49.795Z,13.13
2023-01-13T15:44:38.002Z,15.27
2023-01-13T15:47:09.716Z,14.43
2023-01-13T15:49:40.668Z,16.25
2023-01-13T15:52:20.977Z,16.08
2023-01-13T15:54:52.504Z,16.65
2023-01-13T15:57:24.393Z,16.42
2023-01-13T15:59:55.042Z,14.98
2023-01-13T16:02:25.517Z,14.75
2023-01-13T16:04:54.965Z,14.00
2023-01-13T16:07:25.178Z,16.33
2023-01-13T16:09:56.049Z,14.40
2023-01-13T16:12:24.623Z,15.70
2023-01-13T16:14:53.099Z,14.80
2023-01-13T16:17:29.884Z,19.38
2023-01-13T16:19:58.597Z,14.48
2023-01-13T16:22:27.643Z,15.50
2023-01-13T16:24:58.770Z,15.75
2023-01-13T16:27:31.526Z,16.38
2023-01-13T16:29:59.961Z,20.48
2023-01-13T16:32:29.892Z,18.65
2023-01-13T16:34:59.771Z,19.77
2023-01-13T16:37:29.858Z,17.42
2023-01-13T16:40:02.638Z,20.00
2023-01-13T16:42:31.195Z,19.45
2023-01-13T16:45:08.405Z,18.17
2023-01-13T16:47:39.253Z,17.58
2023-01-13T16:50:08.989Z,19.50
2023-01-13T16:52:39.462Z,19.83
2023-01-13T16:55:08.162Z,20.52
2023-01-13T16:57:36.888Z,22.25
2023-01-13T17:00:06.726Z,22.55
2023-01-13T17:02:39.663Z,18.25
2023-01-13T17:05:09.049Z,19.25
2023-01-13T17:07:37.517Z,19.77
2023-01-13T17:10:06.771Z,20.10
2023-01-13T17:12:35.186Z,18.75
2023-01-13T17:15:03.658Z,16.85
2023-01-13T17:17:33.652Z,20.58
2023-01-13T17:20:03.626Z,19.77
2023-01-13T17:22:32.366Z,20.83
2023-01-13T17:25:01.131Z,22.17
2023-01-13T17:27:29.678Z,19.75
2023-01-13T17:29:58.358Z,19.45
2023-01-13T17:32:26.819Z,25.15
2023-01-13T17:34:55.435Z,21.08
2023-01-13T17:37:25.224Z,23.42
2023-01-13T17:39:53.701Z,23.55
2023-01-13T17:42:24.130Z,21.83
2023-01-13T17:44:54.237Z,24.92
2023-01-13T17:47:22.977Z,19.95
2023-01-13T17:49:53.364Z,20.52
2023-01-13T17:52:21.918Z,21.80
2023-01-13T17:54:52.941Z,27.20
2023-01-13T17:57:21.643Z,24.25
2023-01-13T17:59:52.030Z,25.27
2023-01-13T18:02:20.544Z,24.52
2023-01-13T18:04:51.930Z,23.88
2023-01-13T18:07:20.364Z,23.38
2023-01-13T18:09:50.836Z,25.20
2023-01-13T18:12:20.733Z,29.80
2023-01-13T18:14:49.059Z,23.75
2023-01-13T18:17:19.565Z,25.25
2023-01-13T18:20:05.281Z,28.67
2023-01-13T18:22:50.932Z,24.38
2023-01-13T18:25:37.382Z,21.77
2023-01-13T18:28:07.376Z,29.13
2023-01-13T18:30:35.721Z,26.73
2023-01-13T18:33:04.108Z,25.52
2023-01-13T18:35:32.322Z,28.45
2023-01-13T18:38:00.595Z,26.77
2023-01-13T18:40:28.933Z,30.80
2023-01-13T18:42:56.337Z,29.25
2023-01-13T18:45:27.918Z,27.27
2023-01-13T18:47:58.979Z,24.98
2023-01-13T18:50:34.722Z,27.23
2023-01-13T18:53:05.429Z,31.42
2023-01-13T18:55:33.801Z,28.15
2023-01-13T18:58:02.380Z,27.38
2023-01-13T19:00:36.644Z,27.40
2023-01-13T19:05:36.339Z,27.75
2023-01-13T19:08:05.285Z,27.00
2023-01-13T19:10:33.866Z,29.27
2023-01-13T19:13:02.667Z,26.90
2023-01-13T19:15:32.547Z,28.30
2023-01-13T19:18:00.875Z,27.23
2023-01-13T19:20:29.150Z,34.30
2023-01-13T19:22:57.441Z,27.10
2023-01-13T19:25:26.301Z,26.65
2023-01-13T19:27:54.562Z,29.20
2023-01-13T19:30:23.258Z,29.80
2023-01-13T19:32:53.019Z,40.35
2023-01-13T19:35:21.463Z,35.63
2023-01-13T19:37:50.401Z,30.98
2023-01-13T19:40:19.077Z,32.72
2023-01-13T19:43:04.684Z,35.20
2023-01-13T19:45:35.401Z,31.17
2023-01-13T19:48:07.402Z,31.30
2023-01-13T19:50:39.976Z,31.52
2023-01-13T19:53:09.337Z,36.00
2023-01-13T19:55:37.717Z,36.85
2023-01-13T19:58:08.152Z,35.60
2023-01-13T20:00:46.827Z,37.08
2023-01-13T20:03:17.498Z,37.83
2023-01-13T20:05:45.996Z,35.58
2023-01-13T20:08:14.708Z,36.00
2023-01-13T20:10:45.693Z,40.03
2023-01-13T20:13:14.575Z,36.38
2023-01-13T20:15:44.069Z,35.60
2023-01-13T20:18:14.572Z,38.92
2023-01-13T20:20:44.562Z,35.25
2023-01-13T20:23:15.570Z,33.75
2023-01-13T20:25:45.375Z,37.28
2023-01-13T20:28:16.007Z,38.50
2023-01-13T20:30:46.555Z,33.90
2023-01-13T20:33:15.084Z,36.00
2023-01-13T20:35:48.673Z,32.95
2023-01-13T20:38:17.220Z,37.00
2023-01-13T20:40:45.613Z,34.72
2023-01-13T20:43:12.996Z,37.53
2023-01-13T20:45:43.641Z,31.85
2023-01-13T20:48:12.113Z,34.00
2023-01-13T20:50:47.342Z,44.88
2023-01-13T20:53:17.352Z,36.28
2023-01-13T20:55:45.820Z,33.35
2023-01-13T20:58:14.350Z,37.50
2023-01-13T21:00:45.893Z,36.38
2023-01-13T21:03:15.077Z,38.22
2023-01-13T21:05:43.436Z,36.72
2023-01-13T21:08:13.903Z,36.40
2023-01-13T21:10:43.779Z,37.10
2023-01-13T21:13:29.941Z,36.83
2023-01-13T21:15:59.645Z,31.85
2023-01-13T21:18:45.959Z,27.75
2023-01-13T21:21:14.458Z,31.48
2023-01-13T21:23:47.277Z,34.20
2023-01-13T21:26:19.457Z,33.78
2023-01-13T21:28:47.908Z,31.00
2023-01-13T21:31:16.855Z,34.53
2023-01-13T21:33:47.657Z,31.77
2023-01-13T21:36:16.721Z,25.30
2023-01-13T21:38:45.048Z,29.58
2023-01-13T21:41:15.138Z,37.05
2023-01-13T21:44:02.270Z,29.02
2023-01-13T21:46:47.948Z,28.90
2023-01-13T21:49:16.316Z,28.17
2023-01-13T21:51:45.012Z,26.67
2023-01-13T21:54:13.435Z,23.00
2023-01-13T21:56:41.697Z,23.80
2023-01-13T21:59:13.704Z,23.63
2023-01-13T22:01:57.103Z,21.75
2023-01-13T22:04:44.613Z,15.73
2023-01-13T22:07:13.126Z,16.30
2023-01-13T22:09:41.631Z,21.33
2023-01-13T22:12:10.177Z,21.60
2023-01-13T22:14:42.022Z,19.25
2023-01-13T22:17:18.247Z,22.73
2023-01-13T22:19:47.878Z,22.20
2023-01-13T22:22:18.795Z,25.63
2023-01-13T22:24:49.415Z,18.33
2023-01-13T22:27:19.990Z,19.35
2023-01-13T22:29:50.829Z,19.77
2023-01-13T22:32:20.408Z,21.70
2023-01-13T22:34:49.763Z,16.77
2023-01-13T22:37:18.179Z,22.77
2023-01-13T22:39:46.834Z,19.35
2023-01-13T22:42:15.436Z,17.45
2023-01-13T22:44:44.983Z,15.15
2023-01-13T22:47:14.761Z,17.13
2023-01-13T22:49:47.645Z,12.73
2023-01-13T22:52:16.395Z,13.95
2023-01-13T22:54:44.911Z,14.63
2023-01-13T22:57:13.360Z,13.50
2023-01-13T22:59:41.893Z,13.52
2023-01-13T23:02:10.322Z,14.73
2023-01-13T23:04:40.149Z,12.35
2023-01-13T23:07:08.502Z,15.02
2023-01-13T23:09:36.930Z,17.10
2023-01-13T23:12:05.888Z,16.17
2023-01-13T23:14:34.535Z,14.68
2023-01-13T23:17:03.156Z,11.63
2023-01-13T23:19:34.196Z,12.93
2023-01-13T23:22:04.032Z,12.70
2023-01-13T23:24:32.535Z,13.20
2023-01-13T23:27:01.057Z,14.30
2023-01-13T23:29:31.880Z,10.95
2023-01-13T23:32:00.341Z,10.15
2023-01-13T23:34:28.989Z,9.60
2023-01-13T23:36:57.465Z,11.68
2023-01-13T23:39:27.466Z,10.85
2023-01-13T23:41:55.869Z,10.88
2023-01-13T23:44:24.409Z,12.45
2023-01-13T23:46:53.053Z,8.45
2023-01-13T23:49:21.560Z,13.20
2023-01-13T23:51:52.830Z,12.27
2023-01-13T23:54:21.471Z,10.15
2023-01-13T23:56:53.450Z,11.48
2023-01-13T23:59:22.205Z,12.10
